Time;durP1;ratioP1;P1;durP2;ratioP2;P2;SDS_P1;SDS_P2;PMS_P1;PMS_P2;Temp;Humidity;BMP_temperature;BMP_pressure;BME280_temperature;BME280_humidity;BME280_pressure;Samples;Min_cycle;Max_cycle;Signal;HPM_P1;HPM_P2
2023/07/02 00:08:19;;;;;;;1.37;0.70;;;;;;;;;;20886417;28;20213;-74
2023/07/02 00:18:21;;;;;;;2.20;0.60;;;;;;;;;;20880716;28;20216;-73
2023/07/02 00:28:23;;;;;;;0.90;0.47;;;;;;;;;;20880724;28;20231;-74
2023/07/02 00:38:26;;;;;;;0.53;0.33;;;;;;;;;;20853766;28;20215;-73
2023/07/02 00:48:28;;;;;;;0.97;0.50;;;;;;;;;;20841398;28;20261;-74
2023/07/02 00:58:29;;;;;;;1.80;0.50;;;;;;;;;;20811883;28;20221;-74
2023/07/02 01:08:31;;;;;;;2.13;0.60;;;;;;;;;;20823047;28;20261;-74
2023/07/02 01:18:33;;;;;;;0.77;0.43;;;;;;;;;;20851429;28;20785;-74
2023/07/02 01:28:36;;;;;;;0.90;0.57;;;19.90;99.90;;;;;;20828185;28;20728;-73
2023/07/02 01:38:38;;;;;;;1.10;0.60;;;;;;;;;;20825699;28;20220;-75
2023/07/02 01:48:40;;;;;;;1.80;0.50;;;;;;;;;;20850353;28;20278;-73
2023/07/02 01:58:42;;;;;;;1.93;0.60;;;;;;;;;;20823272;28;20745;-73
2023/07/02 02:08:43;;;;;;;2.23;0.60;;;;;;;;;;20883676;28;20220;-74
2023/07/02 02:18:46;;;;;;;4.93;1.40;;;;;;;;;;20849186;28;20234;-74
2023/07/02 02:28:48;;;;;;;1.80;1.13;;;;;;;;;;20822423;28;20208;-74
2023/07/02 02:38:50;;;;;;;3.17;0.97;;;;;;;;;;20823001;28;20302;-74
2023/07/02 02:48:52;;;;;;;1.60;1.13;;;;;;;;;;20844522;28;20226;-74
2023/07/02 02:58:54;;;;;;;2.60;1.07;;;;;;;;;;20873303;22;20231;-66
2023/07/02 03:08:56;;;;;;;1.60;1.10;;;;;;;;;;20854672;28;20235;-67
2023/07/02 03:18:58;;;;;;;1.57;1.10;;;;;;;;;;20855444;28;20226;-67
2023/07/02 03:29:00;;;;;;;3.10;1.10;;;;;;;;;;20848442;28;20229;-67
2023/07/02 03:39:03;;;;;;;1.50;1.00;;;19.20;99.90;;;;;;20844140;28;20601;-67
2023/07/02 03:49:05;;;;;;;1.97;1.20;;;19.20;99.90;;;;;;20868520;28;20284;-67
2023/07/02 03:59:07;;;;;;;2.80;0.80;;;;;;;;;;20856235;28;20296;-67
2023/07/02 04:09:09;;;;;;;1.97;1.00;;;;;;;;;;20864522;28;20300;-67
2023/07/02 04:19:11;;;;;;;2.03;1.00;;;;;;;;;;20869969;28;20669;-67
2023/07/02 04:29:13;;;;;;;1.97;1.23;;;;;;;;;;20884369;28;20234;-67
2023/07/02 04:39:15;;;;;;;1.80;1.13;;;;;;;;;;20867013;28;20232;-67
2023/07/02 04:49:17;;;;;;;2.63;1.37;;;;;;;;;;20866712;28;20323;-66
2023/07/02 04:59:21;;;;;;;2.17;1.33;;;;;;;;;;20866691;28;20245;-66
2023/07/02 05:09:23;;;;;;;3.27;1.20;;;;;;;;;;20868027;28;20721;-66
2023/07/02 05:19:24;;;;;;;2.70;0.93;;;;;;;;;;20876644;28;20299;-66
2023/07/02 05:29:26;;;;;;;2.20;1.07;;;;;;;;;;20872432;28;20231;-66
2023/07/02 05:39:29;;;;;;;2.40;1.30;;;;;;;;;;20854884;28;20542;-68
2023/07/02 05:49:31;;;;;;;2.90;1.70;;;;;;;;;;20878511;28;20227;-68
2023/07/02 05:59:33;;;;;;;3.20;1.90;;;;;;;;;;20861620;28;20277;-68
2023/07/02 06:09:35;;;;;;;3.23;2.10;;;;;;;;;;20875017;28;20292;-68
2023/07/02 06:19:38;;;;;;;4.07;1.60;;;19.60;99.90;;;;;;20893078;28;20245;-68
2023/07/02 06:29:40;;;;;;;2.90;1.87;;;;;;;;;;20875295;28;20284;-67
2023/07/02 06:39:41;;;;;;;3.43;2.30;;;;;;;;;;20857793;28;20677;-68
2023/07/02 06:49:43;;;;;;;3.73;2.40;;;;;;;;;;20872316;28;20296;-68
2023/07/02 06:59:45;;;;;;;5.07;2.23;;;;;;;;;;20863953;28;20230;-68
2023/07/02 07:09:47;;;;;;;4.47;2.83;;;;;;;;;;20901379;28;20215;-68
2023/07/02 07:19:49;;;;;;;5.30;3.10;;;;;;;;;;20858168;28;20751;-69
2023/07/02 07:29:51;;;;;;;6.27;3.40;;;;;;;;;;20867538;28;20223;-68
2023/07/02 07:39:53;;;;;;;5.20;3.03;;;;;;;;;;20857467;28;20216;-68
2023/07/02 07:49:54;;;;;;;5.37;3.70;;;;;;;;;;20860806;28;20698;-67
2023/07/02 07:59:57;;;;;;;4.83;3.03;;;;;;;;;;20884283;28;20313;-69
2023/07/02 08:10:02;;;;;;;7.67;4.20;;;;;;;;;;20865562;28;20330;-67
2023/07/02 08:20:04;;;;;;;7.30;3.97;;;22.00;99.90;;;;;;20854617;28;20216;-68
2023/07/02 08:30:06;;;;;;;7.40;4.10;;;22.00;99.90;;;;;;20875676;28;20273;-68
2023/07/02 08:40:19;;;;;;;5.57;3.87;;;22.20;99.90;;;;;;20855382;28;20683;-67
2023/07/02 08:50:21;;;;;;;6.60;4.00;;;;;;;;;;20883167;28;20227;-67
2023/07/02 09:00:22;;;;;;;6.27;3.90;;;22.40;99.90;;;;;;20863507;28;20271;-67
2023/07/02 09:10:27;;;;;;;5.27;3.27;;;;;;;;;;20839355;22;20232;-85
2023/07/02 09:20:33;;;;;;;5.73;3.40;;;;;;;;;;20795085;28;20755;-87
2023/07/02 09:30:35;;;;;;;6.80;3.57;;;;;;;;;;20799876;28;20228;-84
2023/07/02 09:52:20;;;;;;;6.38;3.70;;;;;;;;;;20869998;23;20236;-67
2023/07/02 10:02:22;;;;;;;8.70;3.72;;;;;;;;;;20933658;28;20216;-66
2023/07/02 10:12:25;;;;;;;5.20;3.33;;;;;;;;;;20950264;28;20267;-66
2023/07/02 10:22:27;;;;;;;7.45;3.20;;;23.60;92.80;;;;;;21006048;28;20216;-67
2023/07/02 10:32:29;;;;;;;5.38;3.17;;;;;;;;;;20951985;28;20218;-66
2023/07/02 10:42:32;;;;;;;5.82;3.55;;;;;;;;;;20930457;28;20213;-67
2023/07/02 10:52:38;;;;;;;8.25;3.88;;;24.60;93.30;;;;;;20949925;28;20260;-69
2023/07/02 11:02:40;;;;;;;6.40;3.45;;;;;;;;;;20918157;28;20871;-66
2023/07/02 11:12:42;;;;;;;5.40;3.42;;;;;;;;;;20930075;28;20232;-67
2023/07/02 11:22:44;;;;;;;5.15;3.70;;;;;;;;;;20916094;28;20213;-67
2023/07/02 11:32:54;;;;;;;5.65;4.20;;;25.20;86.60;;;;;;20929979;28;20235;-67
2023/07/02 11:42:56;;;;;;;5.53;3.85;;;;;;;;;;20983139;28;20211;-66
2023/07/02 11:52:58;;;;;;;5.10;3.60;;;;;;;;;;20946329;28;20235;-66
2023/07/02 12:03:00;;;;;;;5.80;3.78;;;;;;;;;;20930234;28;20219;-66
2023/07/02 12:13:02;;;;;;;7.07;3.50;;;;;;;;;;20946880;28;20237;-68
2023/07/02 12:23:05;;;;;;;6.75;4.00;;;;;;;;;;21028280;28;20280;-67
2023/07/02 12:33:07;;;;;;;5.57;3.47;;;;;;;;;;21006417;28;20230;-66
2023/07/02 12:43:09;;;;;;;5.65;3.83;;;;;;;;;;20971958;28;20629;-66
2023/07/02 12:53:10;;;;;;;7.07;3.30;;;;;;;;;;20927377;28;20696;-66
2023/07/02 13:03:13;;;;;;;7.25;3.47;;;;;;;;;;20956791;28;20295;-67
2023/07/02 13:13:15;;;;;;;7.25;3.45;;;;;;;;;;20962360;28;20300;-66
2023/07/02 13:23:16;;;;;;;5.63;3.70;;;;;;;;;;20963841;28;20206;-66
2023/07/02 13:33:19;;;;;;;5.55;3.58;;;;;;;;;;20958650;28;20704;-67
2023/07/02 13:43:21;;;;;;;7.18;4.18;;;;;;;;;;20993797;28;20246;-67
2023/07/02 13:53:23;;;;;;;6.80;3.67;;;;;;;;;;20972065;28;20227;-67
2023/07/02 14:03:24;;;;;;;5.15;3.55;;;;;;;;;;20954506;28;20224;-67
2023/07/02 14:13:27;;;;;;;7.07;3.42;;;;;;;;;;20962274;28;20999;-68
2023/07/02 14:23:29;;;;;;;5.95;3.50;;;;;;;;;;20979844;28;20212;-67
2023/07/02 14:33:33;;;;;;;5.03;3.65;;;27.00;84.90;;;;;;20966313;28;20224;-68
2023/07/02 14:43:35;;;;;;;6.40;3.72;;;;;;;;;;20975460;28;20694;-68
2023/07/02 14:53:39;;;;;;;5.95;3.58;;;27.10;82.90;;;;;;20970443;28;20604;-67
2023/07/02 15:03:44;;;;;;;5.47;3.55;;;;;;;;;;20941940;28;20211;-67
2023/07/02 15:13:50;;;;;;;6.00;3.80;;;;;;;;;;20966244;28;20295;-67
2023/07/02 15:23:52;;;;;;;5.82;3.70;;;;;;;;;;21034666;28;20232;-67
2023/07/02 15:33:55;;;;;;;5.18;3.03;;;;;;;;;;20948231;28;20226;-67
2023/07/02 15:44:02;;;;;;;6.65;3.75;;;;;;;;;;20953234;28;20228;-68
2023/07/02 15:54:06;;;;;;;5.10;3.40;;;27.10;82.40;;;;;;20999753;28;20316;-68
2023/07/02 16:04:08;;;;;;;6.43;3.70;;;;;;;;;;21012241;28;20256;-68
2023/07/02 16:14:12;;;;;;;6.35;3.33;;;;;;;;;;20901608;22;20252;-72
2023/07/02 16:24:23;;;;;;;4.70;3.35;;;;;;;;;;20905846;28;20243;-72
2023/07/02 16:34:25;;;;;;;5.45;3.25;;;;;;;;;;20970044;28;20227;-71
2023/07/02 16:44:30;;;;;;;5.90;3.53;;;;;;;;;;20929926;28;20205;-71
2023/07/02 16:54:32;;;;;;;4.78;3.20;;;;;;;;;;20943087;28;20761;-72
2023/07/02 17:04:34;;;;;;;5.07;2.97;;;;;;;;;;20955900;28;20215;-72
2023/07/02 17:14:36;;;;;;;8.15;3.63;;;27.20;81.20;;;;;;20941581;28;20278;-72
2023/07/02 17:24:42;;;;;;;5.03;3.05;;;;;;;;;;20928088;28;20878;-71
2023/07/02 17:34:44;;;;;;;5.32;3.35;;;;;;;;;;20951119;28;20500;-72
2023/07/02 17:44:47;;;;;;;3.72;2.80;;;26.10;84.70;;;;;;20941274;28;20278;-71
2023/07/02 17:54:50;;;;;;;4.90;3.10;;;;;;;;;;20984925;28;20223;-72
2023/07/02 18:04:51;;;;;;;6.22;3.08;;;;;;;;;;20959984;28;20207;-72
2023/07/02 18:14:54;;;;;;;5.40;3.20;;;;;;;;;;20956160;28;20644;-71
2023/07/02 18:24:57;;;;;;;6.22;3.00;;;;;;;;;;20942314;28;20692;-71
2023/07/02 18:35:00;;;;;;;5.05;2.80;;;;;;;;;;20954857;28;20270;-72
2023/07/02 18:45:01;;;;;;;5.80;3.05;;;;;;;;;;20945404;28;20231;-72
2023/07/02 18:55:03;;;;;;;4.50;2.42;;;;;;;;;;20959345;28;20230;-72
2023/07/02 19:05:06;;;;;;;4.60;2.95;;;;;;;;;;20978263;28;20231;-72
2023/07/02 19:15:09;;;;;;;5.15;2.90;;;;;;;;;;20931013;28;20303;-72
2023/07/02 19:25:11;;;;;;;3.83;2.17;;;;;;;;;;20958263;28;20598;-73
2023/07/02 19:35:13;;;;;;;5.75;2.70;;;;;;;;;;20975339;28;20252;-72
2023/07/02 19:45:15;;;;;;;5.63;2.67;;;;;;;;;;20961415;28;20233;-73
2023/07/02 19:55:16;;;;;;;5.03;2.92;;;;;;;;;;20978490;28;20225;-72
2023/07/02 20:05:19;;;;;;;5.55;2.85;;;;;;;;;;20975546;28;20243;-73
2023/07/02 20:15:21;;;;;;;5.53;2.47;;;;;;;;;;20976506;28;20619;-73
2023/07/02 20:25:26;;;;;;;5.65;3.00;;;;;;;;;;20937183;28;20603;-73
2023/07/02 20:35:28;;;;;;;6.57;3.17;;;;;;;;;;20949893;28;20228;-71
2023/07/02 20:45:30;;;;;;;8.27;2.83;;;;;;;;;;20922923;28;20223;-72
2023/07/02 20:55:32;;;;;;;5.07;2.80;;;;;;;;;;20967959;28;20565;-72
2023/07/02 21:05:36;;;;;;;7.57;2.90;;;23.60;90.10;;;;;;20949924;28;20607;-72
2023/07/02 21:15:38;;;;;;;4.28;2.38;;;;;;;;;;20951965;28;20660;-72
2023/07/02 21:25:40;;;;;;;6.13;2.90;;;;;;;;;;20984256;28;20757;-72
2023/07/02 21:35:42;;;;;;;5.78;2.95;;;;;;;;;;20975453;28;20224;-71
2023/07/02 21:45:44;;;;;;;4.72;2.65;;;;;;;;;;20962891;28;20596;-71
2023/07/02 21:55:48;;;;;;;5.03;2.50;;;23.10;92.70;;;;;;20980124;28;20295;-71
2023/07/02 22:05:54;;;;;;;5.60;2.40;;;;;;;;;;20971836;28;20237;-71
2023/07/02 22:15:56;;;;;;;5.05;2.70;;;;;;;;;;21014892;22;20289;-68
2023/07/02 22:25:58;;;;;;;4.47;2.35;;;;;;;;;;20904485;28;20219;-68
2023/07/02 22:35:59;;;;;;;4.05;2.25;;;;;;;;;;20943250;28;20773;-68
2023/07/02 22:46:02;;;;;;;4.95;2.53;;;;;;;;;;20971622;28;20250;-68
2023/07/02 22:56:11;;;;;;;7.40;3.00;;;22.50;94.50;;;;;;20967185;28;20222;-68
2023/07/02 23:06:13;;;;;;;4.57;2.90;;;;;;;;;;20897972;28;20230;-68
2023/07/02 23:16:14;;;;;;;5.65;2.53;;;;;;;;;;20866550;28;20767;-68
2023/07/02 23:26:19;;;;;;;6.07;3.17;;;;;;;;;;20919903;28;20698;-68
2023/07/02 23:36:21;;;;;;;4.03;2.60;;;;;;;;;;20935394;28;20227;-68
2023/07/02 23:46:23;;;;;;;4.50;2.40;;;;;;;;;;20950386;28;20236;-70
2023/07/02 23:56:25;;;;;;;6.03;2.80;;;;;;;;;;20950146;28;20765;-69
